首页
METAR-TAF:

METAR-TAF

机场 :

蒙特雷, 加利福尼亚州, 美国

纬度: 36-35-26N, 经度: 121-50-51W, 海拔: 77米

当前天气观测

该预报发布于49分钟前的19:54 UTC
风速9节,风向北转西北
温度 14°C
湿度 67%
气压 1019 hPa
能見度: 16.1公里
天空无云

METAR: KMRY 261954Z 33009KT 10SM CLR 14/08 A3008 RMK AO2 SLP197 T01440083 $

时间: 13:43 (20:43 UTC)

预报

该预报发布于3小时和22分钟前的17:21 UTC
预报有效从26日的 18点(UTC)到 27日的 18点(UTC)
风速5节,风向西南
能見度: 10公里
散云层高于1000英尺
从 26日的 2000点(UTC)
风速10节,风向西转西北
能見度: 10公里
少量云层高于1500英尺
从 27日的 0400点(UTC)
风速5节,风向西
能見度: 10公里
多云层高于1000英尺
从 27日的 1700点(UTC)
风速7节,风向西转西北
能見度: 10公里
散云层高于2000英尺

TAF: KMRY 261721Z 2618/2718 23005KT P6SM SCT010 FM262000 29010KT P6SM FEW015 FM270400 28005KT P6SM BKN010 FM271700 29007KT P6SM SCT020

超过4000个机场的气象观测和天气预报(METAR&TAF报告)。

可查询的气象台以黄色和红色小点在地图上表示。

将鼠标移到小点上方,可查看气象台名称。

然后点击查看天气观测和预报。

如需切换地图:点击带黑十字的绿色按钮放大地图;点击带横线的绿色按钮缩小地图;或者点击绿色箭头查看邻近地区的地图。


METAR-TAF: